Time;durP1;ratioP1;P1;durP2;ratioP2;P2;SDS_P1;SDS_P2;PMS_P1;PMS_P2;Temp;Humidity;BMP_temperature;BMP_pressure;BME280_temperature;BME280_humidity;BME280_pressure;Samples;Min_cycle;Max_cycle;Signal;HPM_P1;HPM_P2
2023/03/12 00:01:49;;;;;;;13.65;8.88;;;;;;;7.26;100.00;95562.78;5021210;28;20033;-59
2023/03/12 00:04:15;;;;;;;8.48;7.63;;;;;;;7.24;100.00;95554.22;5018934;28;20030;-59
2023/03/12 00:06:40;;;;;;;8.25;7.40;;;;;;;7.31;100.00;95550.16;5029020;28;20028;-58
2023/03/12 00:09:05;;;;;;;10.73;7.03;;;;;;;7.27;100.00;95551.34;5019035;28;20030;-58
2023/03/12 00:11:31;;;;;;;6.78;5.20;;;;;;;7.26;100.00;95557.56;5024935;28;20021;-58
2023/03/12 00:13:57;;;;;;;4.60;4.10;;;;;;;7.21;100.00;95555.28;5017445;28;20155;-59
2023/03/12 00:16:23;;;;;;;16.90;13.30;;;;;;;7.21;100.00;95550.06;5026749;28;20101;-59
2023/03/12 00:18:50;;;;;;;15.90;11.18;;;;;;;7.19;100.00;95557.22;5025381;28;20465;-63
2023/03/12 00:21:15;;;;;;;14.27;10.57;;;;;;;7.21;100.00;95557.91;5023791;28;20100;-63
2023/03/12 00:23:41;;;;;;;17.77;13.38;;;;;;;7.22;100.00;95556.97;5028392;28;20148;-64
2023/03/12 00:26:09;;;;;;;16.08;14.48;;;;;;;7.22;100.00;95550.91;5023763;28;20096;-63
2023/03/12 00:28:35;;;;;;;19.67;17.88;;;;;;;7.23;100.00;95558.63;5022253;28;20018;-63
2023/03/12 00:31:02;;;;;;;12.35;11.07;;;;;;;7.24;100.00;95559.47;5027295;28;20529;-63
2023/03/12 00:33:28;;;;;;;14.07;10.10;;;;;;;7.28;100.00;95558.25;5021537;28;20087;-63
2023/03/12 00:35:54;;;;;;;16.77;13.50;;;;;;;7.32;100.00;95551.81;5016689;28;20025;-59
2023/03/12 00:38:20;;;;;;;12.25;9.90;;;;;;;7.27;100.00;95553.97;5014489;28;20406;-64
2023/03/12 00:40:46;;;;;;;5.20;4.70;;;;;;;7.21;100.00;95552.69;5021709;28;20515;-66
2023/03/12 00:43:12;;;;;;;3.15;2.95;;;;;;;7.26;100.00;95553.13;5014151;28;20105;-65
2023/03/12 00:45:37;;;;;;;4.78;3.55;;;;;;;7.21;100.00;95560.53;5018139;28;20025;-65
2023/03/12 00:48:03;;;;;;;7.30;6.55;;;;;;;7.18;100.00;95568.63;5022354;28;20060;-66
2023/03/12 00:50:28;;;;;;;5.90;5.47;;;;;;;7.14;100.00;95565.44;5013903;28;20022;-66
2023/03/12 00:52:54;;;;;;;6.82;6.22;;;;;;;7.09;100.00;95564.16;5020847;28;20033;-65
2023/03/12 00:55:19;;;;;;;5.00;4.45;;;;;;;7.07;100.00;95564.28;5018251;28;20032;-58
2023/03/12 00:57:44;;;;;;;5.03;4.30;;;;;;;7.04;100.00;95564.53;5014969;28;20022;-58
2023/03/12 01:00:11;;;;;;;5.40;4.90;;;;;;;7.03;100.00;95562.84;5023346;28;20021;-58
2023/03/12 01:02:38;;;;;;;5.45;4.82;;;;;;;7.01;100.00;95570.00;5021166;28;20033;-58
2023/03/12 01:05:05;;;;;;;3.72;3.42;;;;;;;7.30;100.00;95569.44;5023825;28;20032;-58
2023/03/12 01:07:31;;;;;;;6.13;5.00;;;;;;;7.33;100.00;95568.38;5029444;28;20040;-57
2023/03/12 01:09:56;;;;;;;4.70;4.30;;;;;;;7.50;100.00;95570.41;5017459;28;20038;-58
2023/03/12 01:12:22;;;;;;;4.78;4.38;;;;;;;7.53;100.00;95574.56;5015487;28;20148;-58
2023/03/12 01:14:47;;;;;;;6.03;3.90;;;;;;;7.33;100.00;95574.41;5013363;28;20040;-59
2023/03/12 01:17:12;;;;;;;4.18;3.63;;;;;;;7.35;100.00;95579.53;5014403;28;20033;-62
2023/03/12 01:19:37;;;;;;;5.65;4.00;;;;;;;7.43;100.00;95584.97;5010334;28;20522;-63
2023/03/12 01:22:03;;;;;;;4.07;3.60;;;;;;;7.24;100.00;95583.03;5017187;28;20448;-62
2023/03/12 01:24:28;;;;;;;6.22;4.22;;;;;;;7.15;100.00;95582.78;5019637;28;20525;-62
2023/03/12 01:26:54;;;;;;;3.75;3.45;;;;;;;7.11;100.00;95584.00;5017877;28;20029;-62
2023/03/12 01:29:19;;;;;;;6.78;4.35;;;;;;;7.09;100.00;95587.72;5015438;28;20026;-62
2023/03/12 01:31:44;;;;;;;4.68;4.28;;;;;;;7.09;100.00;95582.47;5010795;28;20041;-62
2023/03/12 01:34:11;;;;;;;5.55;4.70;;;;;;;7.06;100.00;95585.31;5010932;28;20025;-65
2023/03/12 01:36:36;;;;;;;5.25;2.70;;;;;;;7.05;100.00;95584.50;5025026;28;20022;-62
2023/03/12 01:39:03;;;;;;;4.07;2.35;;;;;;;7.03;100.00;95583.81;5026787;28;20025;-61
2023/03/12 01:41:33;;;;;;;2.30;2.20;;;;;;;7.01;100.00;95581.28;5024907;28;20029;-62
2023/03/12 01:44:02;;;;;;;3.03;2.17;;;;;;;6.99;100.00;95580.59;5025244;28;20128;-61
2023/03/12 01:46:38;;;;;;;2.10;2.00;;;;;;;7.00;100.00;95587.47;5027159;28;20112;-62
2023/03/12 01:49:16;;;;;;;42.95;32.10;;;;;;;6.98;100.00;95581.53;5026777;28;20040;-61
2023/03/12 01:51:50;;;;;;;55.80;41.00;;;;;;;7.00;100.00;95584.06;5014978;28;20118;-72
2023/03/12 01:54:23;;;;;;;26.83;19.30;;;;;;;6.99;100.00;95582.38;5010511;28;20080;-62
2023/03/12 01:56:50;;;;;;;20.92;17.00;;;;;;;6.97;100.00;95576.44;5027854;28;20026;-58
2023/03/12 01:59:42;;;;;;;17.55;14.27;;;;;;;6.96;100.00;95582.59;5024614;28;20025;-58
2023/03/12 02:02:08;;;;;;;8.73;7.43;;;;;;;6.94;100.00;95585.34;5006137;28;20153;-58
2023/03/12 02:04:37;;;;;;;9.93;7.43;;;;;;;6.93;100.00;95577.63;5022974;28;20520;-58
2023/03/12 02:07:16;;;;;;;7.85;7.07;;;;;;;6.90;100.00;95573.47;5023258;28;20026;-58
2023/03/12 02:09:46;;;;;;;8.02;5.40;;;;;;;6.88;100.00;95560.50;5029249;28;20120;-58
2023/03/12 02:12:12;;;;;;;4.45;4.05;;;;;;;6.86;100.00;95564.22;5028432;28;20104;-62
2023/03/12 02:14:38;;;;;;;9.48;6.05;;;;;;;6.84;100.00;95564.31;5028942;28;20036;-74
2023/03/12 02:17:04;;;;;;;11.30;7.57;;;;;;;6.84;100.00;95558.25;5028384;28;20025;-75
2023/03/12 02:19:41;;;;;;;13.20;6.40;;;;;;;6.82;100.00;95547.91;5028730;28;20046;-73
2023/03/12 02:22:08;;;;;;;4.68;4.30;;;;;;;6.82;100.00;95540.06;5029014;28;20482;-74
2023/03/12 02:24:49;;;;;;;5.03;4.63;;;;;;;6.86;100.00;95541.47;5024657;28;20026;-73
2023/03/12 02:27:17;;;;;;;6.22;5.63;;;;;;;6.90;100.00;95536.84;5022944;28;20113;-73
2023/03/12 02:29:44;;;;;;;5.32;3.72;;;;;;;6.99;100.00;95532.66;5014814;28;20022;-73
2023/03/12 02:32:18;;;;;;;4.03;3.65;;;;;;;7.00;100.00;95537.75;5022982;28;20108;-62
2023/03/12 02:34:44;;;;;;;12.55;7.70;;;;;;;6.92;100.00;95529.69;5026865;28;20033;-62
2023/03/12 02:37:09;;;;;;;11.38;8.15;;;;;;;6.81;100.00;95525.31;5026529;28;20364;-63
2023/03/12 02:39:36;;;;;;;13.57;8.80;;;;;;;6.85;100.00;95525.88;5026160;28;20483;-62
2023/03/12 02:42:01;;;;;;;8.18;6.47;;;;;;;6.82;100.00;95532.22;5028903;28;20025;-62
2023/03/12 02:44:29;;;;;;;6.07;4.45;;;;;;;6.76;100.00;95539.72;5026963;28;20483;-63
2023/03/12 02:46:58;;;;;;;5.15;3.38;;;;;;;6.69;100.00;95552.44;5028707;28;20029;-63
2023/03/12 02:49:27;;;;;;;3.65;2.78;;;;;;;6.71;100.00;95559.22;5024658;28;20037;-62
2023/03/12 02:51:53;;;;;;;3.72;3.42;;;;;;;6.98;100.00;95565.03;5028752;28;20536;-62
2023/03/12 02:54:19;;;;;;;6.60;3.83;;;;;;;7.17;100.00;95565.19;5024921;28;20060;-61
2023/03/12 02:56:45;;;;;;;8.93;8.02;;;;;;;6.87;100.00;95563.25;5031015;28;20017;-61
2023/03/12 02:59:12;;;;;;;6.57;5.97;;;;;;;6.89;100.00;95574.44;5032027;28;20025;-61
2023/03/12 03:01:37;;;;;;;8.98;5.40;;;;;;;6.82;100.00;95581.09;5031211;28;20091;-61
2023/03/12 03:04:05;;;;;;;8.63;5.00;;;;;;;6.75;100.00;95588.63;5031428;28;20087;-61
2023/03/12 03:06:31;;;;;;;6.18;4.63;;;;;;;6.70;100.00;95577.66;5031763;28;20114;-62
2023/03/12 03:08:57;;;;;;;4.70;4.28;;;;;;;6.69;100.00;95570.75;5028249;28;20562;-62
2023/03/12 03:11:23;;;;;;;4.43;4.05;;;;;;;6.65;100.00;95575.41;5022706;28;20024;-61
2023/03/12 03:13:53;;;;;;;4.25;3.63;;;;;;;6.64;100.00;95573.75;5031417;28;20419;-57
2023/03/12 03:16:19;;;;;;;3.60;3.30;;;;;;;6.65;100.00;95575.41;5028923;28;20491;-57
2023/03/12 03:18:44;;;;;;;5.00;4.60;;;;;;;6.65;100.00;95570.19;5032037;28;20426;-57
2023/03/12 03:21:15;;;;;;;6.10;5.60;;;;;;;6.65;100.00;95564.09;5029161;28;20091;-58
2023/03/12 03:23:41;;;;;;;3.90;3.60;;;;;;;6.70;100.00;95570.66;5012895;28;20029;-58
2023/03/12 03:26:07;;;;;;;4.05;3.25;;;;;;;6.70;100.00;95567.19;5022181;28;20029;-58
2023/03/12 03:28:32;;;;;;;3.25;3.05;;;;;;;6.70;100.00;95572.41;5018426;28;20026;-61
2023/03/12 03:31:00;;;;;;;3.88;3.67;;;;;;;6.73;100.00;95577.41;5018627;28;20160;-58
2023/03/12 03:33:27;;;;;;;3.13;2.92;;;;;;;6.72;100.00;95565.28;5031257;28;20083;-58
2023/03/12 03:35:54;;;;;;;3.22;3.03;;;;;;;6.73;100.00;95577.41;5025228;28;20377;-58
2023/03/12 03:38:20;;;;;;;4.47;4.00;;;;;;;6.74;100.00;95576.44;5015657;28;20403;-58
2023/03/12 03:40:45;;;;;;;6.88;6.15;;;;;;;6.81;100.00;95580.28;5030933;28;20017;-57
2023/03/12 03:43:11;;;;;;;3.50;3.20;;;;;;;6.83;100.00;95585.38;5029385;28;20021;-58
2023/03/12 03:45:36;;;;;;;9.38;3.22;;;;;;;6.76;100.00;95586.81;5031318;28;20036;-58
2023/03/12 03:48:02;;;;;;;3.47;3.17;;;;;;;6.73;100.00;95598.34;5027125;28;20025;-62
2023/03/12 03:50:27;;;;;;;4.95;2.80;;;;;;;6.75;100.00;95601.69;5030108;28;20030;-62
2023/03/12 03:52:53;;;;;;;4.07;2.40;;;;;;;6.77;100.00;95605.03;5027420;28;20105;-72
2023/03/12 03:55:18;;;;;;;2.75;2.55;;;;;;;6.71;100.00;95606.31;5021346;28;20518;-73
2023/03/12 03:57:43;;;;;;;3.08;2.75;;;;;;;6.67;100.00;95607.53;5029383;28;20076;-73
2023/03/12 04:00:11;;;;;;;2.78;2.58;;;;;;;6.65;100.00;95611.19;5026025;28;20068;-74
2023/03/12 04:02:37;;;;;;;2.45;2.30;;;;;;;6.67;100.00;95617.13;5024458;28;20061;-74
2023/03/12 04:05:03;;;;;;;2.38;2.10;;;;;;;6.75;100.00;95620.00;5020424;28;20084;-73
2023/03/12 04:07:29;;;;;;;2.33;2.13;;;;;;;6.71;100.00;95623.78;5030087;28;20398;-75
2023/03/12 04:09:55;;;;;;;4.13;1.98;;;;;;;6.74;100.00;95629.63;5025992;28;20492;-62
2023/03/12 04:12:22;;;;;;;2.42;2.28;;;;;;;6.69;100.00;95626.53;5023805;28;20025;-65
2023/03/12 04:14:48;;;;;;;2.50;2.38;;;;;;;6.70;100.00;95630.81;5018344;28;20028;-65
2023/03/12 04:17:13;;;;;;;2.90;2.70;;;;;;;6.72;100.00;95630.69;5030734;28;20029;-66
2023/03/12 04:19:38;;;;;;;4.07;2.58;;;;;;;6.73;100.00;95633.19;5013741;28;20038;-66
2023/03/12 04:22:04;;;;;;;2.40;2.20;;;;;;;6.73;100.00;95637.59;5012610;28;20605;-65
2023/03/12 04:24:29;;;;;;;3.17;2.63;;;;;;;6.72;100.00;95634.16;5025168;28;20068;-65
2023/03/12 04:26:55;;;;;;;3.25;2.22;;;;;;;6.71;100.00;95642.09;5021239;28;20040;-62
2023/03/12 04:29:21;;;;;;;4.13;2.63;;;;;;;6.69;100.00;95634.41;5029940;28;20045;-65
2023/03/12 04:31:46;;;;;;;2.28;2.17;;;;;;;6.77;100.00;95636.41;5030755;28;20132;-58
2023/03/12 04:34:12;;;;;;;2.78;2.40;;;;;;;6.73;100.00;95645.44;5026342;28;20018;-58
2023/03/12 04:36:37;;;;;;;3.22;2.35;;;;;;;6.72;100.00;95649.00;5011626;28;20488;-58
2023/03/12 04:39:06;;;;;;;5.43;2.30;;;;;;;6.71;100.00;95648.19;5026566;28;20057;-58
2023/03/12 04:41:32;;;;;;;2.90;2.70;;;;;;;6.69;100.00;95652.72;5030387;28;20053;-58
2023/03/12 04:43:58;;;;;;;2.67;2.58;;;;;;;6.69;100.00;95659.72;5018359;28;20406;-58
2023/03/12 04:46:23;;;;;;;3.65;2.60;;;;;;;6.70;100.00;95653.53;5030259;28;20116;-73
2023/03/12 04:48:48;;;;;;;3.00;2.80;;;;;;;6.71;100.00;95657.81;5025729;28;20025;-64
2023/03/12 04:51:14;;;;;;;6.07;2.50;;;;;;;6.72;100.00;95667.31;5023555;28;20502;-65
2023/03/12 04:53:39;;;;;;;2.80;2.60;;;;;;;6.71;100.00;95656.03;5029538;28;21546;-65
2023/03/12 04:56:05;;;;;;;6.75;2.90;;;;;;;6.71;100.00;95668.28;5030367;28;20025;-64
2023/03/12 04:58:30;;;;;;;4.00;3.70;;;;;;;6.70;100.00;95672.69;5029922;28;20076;-64
2023/03/12 05:00:55;;;;;;;3.92;3.65;;;;;;;6.70;100.00;95662.22;5029892;28;20112;-64
2023/03/12 05:03:21;;;;;;;3.67;3.20;;;;;;;6.67;100.00;95665.09;5029314;28;20095;-64
2023/03/12 05:05:46;;;;;;;3.83;3.28;;;;;;;6.68;100.00;95669.38;5029477;28;20116;-63
2023/03/12 05:08:12;;;;;;;4.35;3.00;;;;;;;6.67;100.00;95677.31;5029274;28;20068;-62
2023/03/12 05:10:38;;;;;;;3.25;2.92;;;;;;;6.63;100.00;95676.75;5029290;28;20022;-62
2023/03/12 05:13:03;;;;;;;3.47;3.28;;;;;;;6.65;100.00;95685.31;5029603;28;20040;-63
2023/03/12 05:15:28;;;;;;;2.85;2.65;;;;;;;6.67;100.00;95688.63;5027561;28;20444;-62
2023/03/12 05:17:54;;;;;;;3.30;3.10;;;;;;;6.67;100.00;95693.00;5026754;28;20776;-62
2023/03/12 05:20:19;;;;;;;4.00;3.63;;;;;;;6.79;100.00;95697.31;5013396;28;20036;-62
2023/03/12 05:22:44;;;;;;;5.15;3.30;;;;;;;6.80;100.00;95691.13;5018092;28;20014;-62
2023/03/12 05:25:10;;;;;;;4.22;3.58;;;;;;;6.75;100.00;95698.50;5022035;28;20184;-62
2023/03/12 05:27:36;;;;;;;3.90;3.35;;;;;;;6.70;100.00;95704.09;5028819;28;20191;-62
2023/03/12 05:30:03;;;;;;;4.28;3.40;;;;;;;6.70;100.00;95701.47;5024248;28;20029;-73
2023/03/12 05:32:28;;;;;;;4.38;4.05;;;;;;;6.65;100.00;95701.00;5029429;28;20104;-73
2023/03/12 05:34:54;;;;;;;4.68;4.32;;;;;;;6.64;100.00;95706.34;5029472;28;20121;-74
2023/03/12 05:37:19;;;;;;;6.65;4.40;;;;;;;6.62;100.00;95714.28;5028975;28;20021;-73
2023/03/12 05:39:47;;;;;;;4.60;4.20;;;;;;;6.61;100.00;95709.19;5024404;28;20459;-73
2023/03/12 05:42:13;;;;;;;4.28;3.90;;;;;;;6.61;100.00;95717.84;5027623;28;20038;-74
2023/03/12 05:44:39;;;;;;;4.63;4.20;;;;;;;6.61;100.00;95717.03;5020713;28;20053;-63
2023/03/12 05:47:05;;;;;;;4.60;4.30;;;;;;;6.59;100.00;95715.38;5024211;28;20073;-62
2023/03/12 05:49:30;;;;;;;3.85;3.65;;;;;;;6.62;100.00;95718.69;5029030;28;20506;-73
2023/03/12 05:51:56;;;;;;;4.43;4.10;;;;;;;6.63;100.00;95721.22;5029156;28;20033;-74
2023/03/12 05:54:21;;;;;;;6.60;5.95;;;;;;;6.64;100.00;95717.66;5029170;28;20518;-73
2023/03/12 05:56:47;;;;;;;7.38;6.68;;;;;;;6.63;100.00;95725.59;5025396;28;20502;-73
2023/03/12 05:59:12;;;;;;;4.35;4.10;;;;;;;6.62;100.00;95724.75;5029064;28;20562;-73
2023/03/12 06:01:38;;;;;;;4.10;3.88;;;;;;;6.62;100.00;95726.56;5028857;28;20036;-73
2023/03/12 06:04:04;;;;;;;5.90;4.30;;;;;;;6.63;100.00;95730.84;5029930;28;20048;-61
2023/03/12 06:06:31;;;;;;;4.93;3.67;;;;;;;6.61;100.00;95730.13;5028799;28;20052;-63
2023/03/12 06:08:56;;;;;;;4.20;3.80;;;;;;;6.61;100.00;95736.16;5028050;28;20542;-63
2023/03/12 06:11:22;;;;;;;5.60;5.10;;;;;;;6.62;100.00;95737.00;5028071;28;20049;-63
2023/03/12 06:13:47;;;;;;;7.40;5.97;;;;;;;6.62;100.00;95748.28;5022195;28;20026;-63
2023/03/12 06:16:19;;;;;;;8.23;7.20;;;;;;;6.62;100.00;95750.91;5023975;28;20037;-63
2023/03/12 06:18:44;;;;;;;7.75;7.05;;;;;;;6.64;100.00;95761.28;5018160;28;20045;-63
2023/03/12 06:21:19;;;;;;;7.72;6.90;;;;;;;6.64;100.00;95775.19;5027066;28;20487;-63
2023/03/12 06:23:45;;;;;;;7.50;5.68;;;;;;;6.66;100.00;95775.06;5029246;28;20049;-59
2023/03/12 06:26:11;;;;;;;6.45;5.30;;;;;;;6.64;100.00;95783.06;5016649;28;20061;-63
2023/03/12 06:28:37;;;;;;;4.75;4.45;;;;;;;6.64;100.00;95779.59;5029440;28;20520;-63
2023/03/12 06:31:03;;;;;;;5.78;5.28;;;;;;;6.63;100.00;95788.38;5018904;28;20033;-63
2023/03/12 06:33:29;;;;;;;6.38;5.40;;;;;;;6.62;100.00;95784.09;5032634;28;20032;-65
2023/03/12 06:35:59;;;;;;;5.88;5.38;;;;;;;6.62;100.00;95784.91;5029042;28;20033;-63
2023/03/12 06:38:25;;;;;;;5.05;4.65;;;;;;;6.63;100.00;95783.16;5026730;28;20495;-63
2023/03/12 06:41:00;;;;;;;5.63;5.10;;;;;;;6.66;100.00;95785.53;5032007;28;20105;-64
2023/03/12 06:43:28;;;;;;;4.60;4.30;;;;;;;6.74;100.00;95789.25;5031831;28;20112;-58
2023/03/12 06:45:55;;;;;;;5.05;4.65;;;;;;;6.91;100.00;95787.13;5027891;28;20041;-58
2023/03/12 06:48:21;;;;;;;5.53;4.65;;;;;;;6.81;100.00;95789.63;5026517;28;20033;-58
2023/03/12 06:50:47;;;;;;;5.07;4.68;;;;;;;6.82;100.00;95790.44;5027153;28;20555;-58
2023/03/12 06:53:12;;;;;;;4.65;4.25;;;;;;;6.84;100.00;95794.63;5032224;28;20104;-58
2023/03/12 06:55:38;;;;;;;4.28;3.97;;;;;;;6.87;100.00;95797.00;5032366;28;20029;-58
2023/03/12 06:58:03;;;;;;;4.30;3.90;;;;;;;6.88;100.00;95801.28;5030416;28;20034;-58
2023/03/12 07:00:30;;;;;;;26.65;21.27;;;;;;;6.87;100.00;95810.09;5027590;28;20029;-63
2023/03/12 07:02:56;;;;;;;33.60;25.75;;;;;;;6.91;100.00;95799.38;5031643;28;20384;-65
2023/03/12 07:05:22;;;;;;;12.65;10.48;;;;;;;6.96;100.00;95805.94;5028753;28;20159;-63
2023/03/12 07:07:48;;;;;;;12.25;10.68;;;;;;;6.99;100.00;95810.13;5031367;28;20044;-64
2023/03/12 07:10:13;;;;;;;9.13;6.90;;;;;;;7.04;100.00;95807.97;5032078;28;20105;-63
2023/03/12 07:12:38;;;;;;;11.25;7.32;;;;;;;7.05;100.00;95804.41;5031843;28;20052;-63
2023/03/12 07:15:04;;;;;;;7.03;6.45;;;;;;;7.05;100.00;95807.03;5031980;28;20028;-63
2023/03/12 07:17:30;;;;;;;12.27;9.13;;;;;;;7.07;100.00;95812.97;5029154;28;20034;-63
2023/03/12 07:19:55;;;;;;;7.07;6.38;;;;;;;7.10;100.00;95817.97;5028500;28;20038;-64
2023/03/12 07:22:20;;;;;;;7.70;7.00;;;;;;;7.11;100.00;95824.88;5031534;28;20503;-62
2023/03/12 07:24:46;;;;;;;9.35;7.13;;;;;;;7.16;100.00;95830.59;5029567;28;20037;-63
2023/03/12 07:27:11;;;;;;;11.10;9.95;;;;;;;7.17;100.00;95821.78;5019649;28;20484;-65
2023/03/12 07:29:36;;;;;;;12.10;10.95;;;;;;;7.18;100.00;95817.38;5027280;28;20055;-62
2023/03/12 07:32:02;;;;;;;11.18;9.85;;;;;;;7.22;100.00;95818.81;5012668;28;20108;-64
2023/03/12 07:34:27;;;;;;;10.82;8.85;;;;;;;7.28;100.00;95823.56;5017086;28;20879;-63
2023/03/12 07:36:53;;;;;;;11.07;9.68;;;;;;;7.35;100.00;95818.69;5014606;28;20037;-64
2023/03/12 07:39:19;;;;;;;9.63;8.75;;;;;;;7.41;100.00;95810.38;5023466;28;20010;-62
2023/03/12 07:41:44;;;;;;;9.10;8.35;;;;;;;7.46;100.00;95804.75;5017588;28;20024;-63
2023/03/12 07:44:10;;;;;;;9.75;8.95;;;;;;;7.54;100.00;95814.66;5017476;28;20026;-61
2023/03/12 07:46:35;;;;;;;10.05;9.23;;;;;;;7.57;100.00;95807.41;5020905;28;20403;-60
2023/03/12 07:49:00;;;;;;;6.82;6.32;;;;;;;7.74;100.00;95803.44;5019059;28;20017;-60
2023/03/12 07:51:26;;;;;;;7.35;6.78;;;;;;;7.88;100.00;95809.38;5012039;28;20108;-61
2023/03/12 07:53:51;;;;;;;8.05;6.47;;;;;;;7.91;100.00;95811.75;5016444;28;20116;-61
2023/03/12 07:56:17;;;;;;;10.00;9.00;;;;;;;8.02;100.00;95806.47;5012055;28;20495;-60
2023/03/12 07:58:42;;;;;;;9.90;8.85;;;;;;;7.99;100.00;95816.38;5011568;28;20689;-59
2023/03/12 08:01:08;;;;;;;5.18;4.47;;;;;;;7.95;100.00;95815.78;5005472;28;20841;-63
2023/03/12 08:03:33;;;;;;;5.35;3.85;;;;;;;7.93;100.00;95829.97;5007726;28;20211;-67
2023/03/12 08:06:01;;;;;;;4.50;4.10;;;;;;;7.93;100.00;95837.81;5015421;28;20025;-65
2023/03/12 08:08:28;;;;;;;3.95;3.65;;;;;;;7.93;100.00;95843.06;5018070;28;20045;-65
2023/03/12 08:10:53;;;;;;;5.00;4.60;;;;;;;7.94;100.00;95860.47;5020489;28;20013;-66
2023/03/12 08:13:19;;;;;;;4.30;3.40;;;;;;;7.87;100.00;95871.44;5014816;28;20026;-65
2023/03/12 08:15:45;;;;;;;4.45;3.25;;;;;;;7.84;100.00;95863.81;5012919;28;20083;-65
2023/03/12 08:18:10;;;;;;;3.42;3.20;;;;;;;8.10;100.00;95870.59;5011019;28;20411;-60
2023/03/12 08:20:36;;;;;;;4.88;4.47;;;;;;;8.23;100.00;95871.25;5013488;28;20404;-58
2023/03/12 08:23:01;;;;;;;2.38;2.28;;;;;;;8.14;100.00;95880.69;5011902;28;20033;-64
2023/03/12 08:25:27;;;;;;;2.75;2.55;;;;;;;8.40;100.00;95882.19;5019192;28;20033;-65
2023/03/12 08:27:52;;;;;;;2.80;2.60;;;;;;;8.43;100.00;95876.69;5025388;28;20022;-64
2023/03/12 08:30:18;;;;;;;3.65;3.42;;;;;;;8.67;100.00;95878.31;5025917;28;20018;-64
2023/03/12 08:32:43;;;;;;;2.30;2.20;;;;;;;8.51;100.00;95882.22;5020601;28;20025;-63
2023/03/12 08:35:09;;;;;;;3.88;3.67;;;;;;;8.35;100.00;95879.94;5030162;28;20029;-66
2023/03/12 08:37:35;;;;;;;3.20;3.10;;;;;;;8.36;100.00;95881.59;5044128;28;20075;-75
2023/03/12 08:40:01;;;;;;;3.83;3.53;;;;;;;8.43;100.00;95876.69;5028961;28;20624;-68
2023/03/12 08:42:26;;;;;;;2.63;2.53;;;;;;;8.56;100.00;95877.41;5025969;28;20037;-65
2023/03/12 08:44:51;;;;;;;2.63;2.42;;;;;;;8.63;100.00;95877.75;5030288;28;20109;-67
2023/03/12 08:47:17;;;;;;;4.45;2.30;;;;;;;8.71;100.00;95883.19;5029917;28;20056;-66
2023/03/12 08:49:42;;;;;;;3.17;2.97;;;;;;;8.87;100.00;95882.75;5026644;28;20040;-64
2023/03/12 08:52:07;;;;;;;2.72;2.47;;;;;;;9.10;100.00;95887.09;5029895;28;20009;-64
2023/03/12 08:54:33;;;;;;;3.60;3.40;;;;;;;9.30;100.00;95874.88;5027134;28;20043;-61
2023/03/12 08:56:59;;;;;;;4.72;3.83;;;;;;;9.44;100.00;95871.94;5026023;28;20017;-72
2023/03/12 08:59:24;;;;;;;2.80;2.70;;;;;;;9.57;100.00;95865.63;5029948;28;20414;-65
2023/03/12 09:01:49;;;;;;;2.58;2.38;;;;;;;9.61;100.00;95872.25;5029648;28;20013;-61
2023/03/12 09:04:15;;;;;;;2.72;2.53;;;;;;;9.82;100.00;95876.66;5021236;28;20124;-65
2023/03/12 09:06:41;;;;;;;2.28;2.17;;;;;;;9.69;100.00;95885.59;5029046;28;20029;-67
2023/03/12 09:09:07;;;;;;;3.20;2.38;;;;;;;9.96;100.00;95889.44;5028843;28;20063;-68
2023/03/12 09:11:35;;;;;;;11.77;10.55;;;;;;;10.34;100.00;95892.31;5029171;28;20095;-67
2023/03/12 09:14:01;;;;;;;10.68;9.77;;;;;;;10.54;100.00;95895.84;5028861;28;20026;-66
2023/03/12 09:16:27;;;;;;;8.20;7.50;;;;;;;10.83;100.00;95888.91;5029020;28;20549;-68
2023/03/12 09:18:53;;;;;;;7.43;6.82;;;;;;;11.17;100.00;95881.44;5029008;28;20045;-60
2023/03/12 09:21:18;;;;;;;2.75;1.73;;;;;;;11.60;100.00;95883.66;5016537;28;20024;-63
2023/03/12 09:23:46;;;;;;;1.00;1.00;;;;;;;11.87;100.00;95892.63;5029227;28;20095;-64
2023/03/12 09:26:12;;;;;;;1.20;1.20;;;;;;;12.26;100.00;95897.72;5016692;28;20022;-63
2023/03/12 09:28:37;;;;;;;2.55;1.50;;;;;;;12.35;97.35;95901.28;5029281;28;20029;-64
2023/03/12 09:31:04;;;;;;;3.33;2.40;;;;;;;12.81;95.48;95914.50;5028808;28;20562;-64
2023/03/12 09:33:30;;;;;;;2.70;1.90;;;;;;;13.26;96.98;95922.47;5029539;28;20026;-64
2023/03/12 09:35:57;;;;;;;3.35;1.50;;;;;;;13.10;96.38;95928.47;5029296;28;20021;-70
2023/03/12 09:38:23;;;;;;;2.65;1.45;;;;;;;12.72;98.21;95937.34;5029900;28;20041;-68
2023/03/12 09:40:48;;;;;;;1.80;1.70;;;;;;;12.60;100.00;95935.91;5027355;28;20051;-63
2023/03/12 09:43:31;;;;;;;1.25;1.20;;;;;;;12.82;93.07;95933.78;5028246;28;20035;-64
2023/03/12 09:45:57;;;;;;;1.58;1.48;;;;;;;12.29;95.97;95934.41;5018158;28;20017;-64
2023/03/12 09:48:36;;;;;;;2.47;1.50;;;;;;;12.35;97.11;95935.59;5028099;28;20479;-63
2023/03/12 09:51:07;;;;;;;4.22;1.67;;;;;;;13.01;94.33;95936.28;5023412;28;20519;-64
2023/03/12 09:53:39;;;;;;;1.50;1.45;;;;;;;13.35;93.22;95933.94;5023490;28;20502;-64
2023/03/12 09:56:13;;;;;;;2.85;1.70;;;;;;;13.71;90.32;95942.66;5021010;28;20109;-64
2023/03/12 09:58:41;;;;;;;2.75;2.55;;;;;;;14.05;88.46;95951.63;5025072;28;20029;-66
2023/03/12 10:01:30;;;;;;;2.40;2.20;;;;;;;14.30;87.51;95955.25;5029036;28;20026;-67
2023/03/12 10:04:03;;;;;;;2.00;1.90;;;;;;;14.63;86.52;95959.84;5019905;28;20026;-67
2023/03/12 10:06:35;;;;;;;2.20;1.98;;;;;;;14.86;85.08;95946.00;5022551;28;20067;-65
2023/03/12 10:09:00;;;;;;;2.10;2.00;;;;;;;14.85;86.31;95942.50;5033458;28;20037;-67
2023/03/12 10:12:00;;;;;;;1.80;1.70;;;;;;;15.45;79.69;95943.25;5029237;28;20033;-66
2023/03/12 10:14:31;;;;;;;2.15;2.03;;;;;;;15.96;77.15;95941.38;5029160;28;20021;-64
2023/03/12 10:17:05;;;;;;;1.20;1.10;;;;;;;15.91;77.87;95939.22;5024281;28;20037;-66
2023/03/12 10:19:56;;;;;;;1.10;1.00;;;;;;;16.01;75.35;95941.69;5032867;28;20128;-63
2023/03/12 10:22:31;;;;;;;1.10;1.10;;;;;;;16.11;73.78;95925.56;5022500;28;20087;-63
2023/03/12 10:25:15;;;;;;;1.20;1.10;;;;;;;15.65;74.55;95934.94;5022454;28;20029;-63
2023/03/12 10:27:41;;;;;;;1.63;0.93;;;;;;;15.94;75.97;95927.47;5029618;28;20483;-63
2023/03/12 10:30:18;;;;;;;3.80;2.65;;;;;;;16.01;69.83;95928.44;5032593;28;20086;-63
2023/03/12 10:32:49;;;;;;;1.05;1.00;;;;;;;15.21;71.62;95922.84;5031939;28;20442;-66
2023/03/12 10:35:20;;;;;;;2.00;1.58;;;;;;;14.99;77.62;95922.50;5032115;28;20068;-64
2023/03/12 10:37:53;;;;;;;2.72;1.52;;;;;;;15.09;77.72;95918.88;5021413;28;20660;-64
2023/03/12 10:40:25;;;;;;;1.40;1.35;;;;;;;15.39;72.97;95914.72;5019315;28;20017;-64
2023/03/12 10:42:51;;;;;;;1.48;1.38;;;;;;;15.71;74.18;95915.69;5021708;28;20076;-64
2023/03/12 10:45:27;;;;;;;1.63;1.40;;;;;;;15.94;70.75;95909.69;5021602;28;20105;-63
2023/03/12 10:48:01;;;;;;;1.77;1.45;;;;;;;16.14;70.49;95915.44;5019410;28;20025;-63
2023/03/12 10:50:29;;;;;;;1.95;1.50;;;;;;;16.37;72.93;95911.19;5027583;28;20072;-63
2023/03/12 10:53:21;;;;;;;0.90;0.90;;;;;;;16.74;71.03;95921.13;5019801;28;20112;-64
2023/03/12 10:56:00;;;;;;;1.50;1.40;;;;;;;17.29;66.10;95921.16;5031544;28;20109;-62
2023/03/12 10:58:31;;;;;;;1.15;1.05;;;;;;;17.57;60.78;95922.38;5016732;28;20475;-67
2023/03/12 11:00:59;;;;;;;2.53;1.08;;;;;;;17.75;60.29;95932.72;5019245;28;20026;-67
2023/03/12 11:03:26;;;;;;;1.67;1.58;;;;;;;17.81;65.77;95931.19;5028986;28;20026;-67
2023/03/12 11:06:00;;;;;;;1.92;1.83;;;;;;;17.88;66.19;95932.09;5019993;28;20034;-67
2023/03/12 11:08:28;;;;;;;2.08;1.58;;;;;;;17.61;68.52;95931.69;5019036;28;20029;-67
2023/03/12 11:10:54;;;;;;;2.03;1.60;;;;;;;18.29;69.52;95937.00;5021797;28;20502;-65
2023/03/12 11:13:22;;;;;;;1.30;1.30;;;;;;;18.45;62.85;95941.31;5018037;28;20026;-78
2023/03/12 11:15:48;;;;;;;3.22;1.40;;;;;;;18.86;61.82;95947.94;5020554;28;20165;-75
2023/03/12 11:18:27;;;;;;;2.38;2.05;;;;;;;18.48;60.93;95953.47;5020345;28;20515;-78
2023/03/12 11:20:56;;;;;;;2.55;2.35;;;;;;;18.90;60.09;95949.25;5020192;28;20522;-72
2023/03/12 11:23:29;;;;;;;2.70;2.03;;;;;;;18.84;58.68;95946.50;5026076;28;20395;-77
2023/03/12 11:26:01;;;;;;;1.90;1.60;;;;;;;17.81;63.43;95947.16;5019096;28;20034;-77
2023/03/12 11:28:35;;;;;;;1.95;1.83;;;;;;;17.48;64.56;95948.28;5020327;28;20108;-74
2023/03/12 11:31:01;;;;;;;1.80;1.73;;;;;;;17.41;65.68;95949.97;5031199;28;20036;-78
2023/03/12 11:33:27;;;;;;;2.05;1.92;;;;;;;17.89;65.64;95947.06;5031418;28;20022;-73